Tiempo atmosférico en la estación meteorológica de La Oliva, Las Palmas (217 m.)



Fecha
DESCASC
Temp. máxima en grados centígrados (hora)
DESCASC
Temp. mínima en grados centígrados (hora)
DESCASC
Temp. media en grados centígrados
DESCASC
Racha de viento máxima en m/sg (hora)
DESCASC
Velocidad máxima media en intervalos de 10 minutos(hora)
DESCASC
Precipitaciones diarias en mm
DESCASC
Precipitaciones de 00:00 a 06:00 en mm
DESCASC
Precipitaciones de 06:00 a 12:00 en mm
DESCASC
Precipitaciones de 12:00 a 18:00 en mm
DESCASC
Precipitaciones de 18:00 a 24:00 en mm
DESCASC
13-10-2019 25.1 (14:30) 15.4 (06:00) 20.3 8.33 (18:10) 5.28 (17:20) 0 0 0 0 0
12-10-2019 26 (14:10) 15.8 (08:20) 20.9 7.78 (17:30) 4.17 (17:20) 0 0 0 0 0
11-10-2019 26 (14:30) 15.6 (08:00) 20.8 7.78 (16:40) 4.44 (16:30) 0 0 0 0 0
10-10-2019 25.3 (14:10) 18.7 (00:00) 22 8.06 (15:30) 3.89 (15:30) 0 0 0 0 0
09-10-2019 25.1 (13:40) 17.7 (00:00) 21.4 7.22 (15:30) 4.44 (15:40) 0 0 0 0 0
08-10-2019 24.8 (14:20) 18.9 (00:00) 21.8 7.5 (14:50) 3.89 (15:00) 0 0 0 0 0
07-10-2019 26.2 (15:10) 19.4 (00:00) 22.8 7.5 (15:50) 4.17 (10:10) 0 0 0 0 0
06-10-2019 24.3 (15:00) 19 (00:00) 21.6 8.89 (14:20) 5.56 (10:20) 0 0 0 0 0
05-10-2019 25.6 (14:50) 17.6 (00:00) 21.6 11.11 (14:20) 6.94 (13:20) 0 0 0 0 0
04-10-2019 26.2 (15:10) 19.2 (00:00) 22.7 11.39 (04:00) 6.67 (01:50) 0 0 0 0 0
03-10-2019 26.2 (14:40) 19.1 (00:00) 22.7 12.5 (19:00) 7.5 (18:00) 0 0 0 0 0
02-10-2019 28 (15:20) 19.7 (00:00) 23.9 12.22 (02:50) 8.33 (01:50) 0 0 0 0 0
01-10-2019 29.2 (16:40) 19.5 (00:00) 24.4 12.78 (22:30) 8.06 (22:40) 0 0 0 0 0
30-09-2019 30.9 (15:10) 18.6 (00:00) 24.8 9.44 (16:00) 5.28 (16:10) 0 0 0 0 0
29-09-2019 27.2 (14:20) 19.5 (00:00) 23.4 10 (13:10) 6.11 (13:10) 0 0 0 0 0
28-09-2019 25.3 (17:10) 18.4 (00:00) 21.8 8.33 (10:40) 5.83 (10:30) 0 0 0 0 0
27-09-2019 25 (15:10) 19.6 (00:00) 22.3 8.06 (14:10) 4.44 (14:10) 0 0 0 0 0
26-09-2019 25.6 (14:10) 20.4 (00:00) 23 7.78 (15:20) 4.17 (18:20) 0 0 0 0 0
25-09-2019 26.3 (13:30) 18.9 (00:00) 22.6 9.72 (13:40) 5 (12:10) 0 0 0 0 0
24-09-2019 25.4 (15:20) 18.4 (00:00) 21.9 10 (16:30) 5.56 (17:20) 0 0 0 0 0
23-09-2019 25 (13:50) 19.1 (00:00) 22.1 9.72 (14:20) 5.56 (17:10) 0 0 0 0 0
22-09-2019 27.1 (14:20) 18.6 (00:00) 22.9 8.33 (14:30) 4.44 (12:50) 0 0 0 0 0
21-09-2019 26.5 (15:10) 15.9 (00:00) 21.2 7.22 (17:20) 4.17 (18:00) 0 0 0 0 0
20-09-2019 25.8 (16:40) 18.4 (00:00) 22.1 10.83 (13:50) 4.17 (18:20) 0 0 0 0 0
19-09-2019 25.2 (15:00) 17.3 (00:00) 21.3 8.89 (13:50) 5 (18:10) 0 0 0 0 0
18-09-2019 24.8 (15:00) 18.7 (00:00) 21.8 9.17 (10:00) 5.56 (10:30) 0 0 0 0 0
17-09-2019 26 (15:40) 18.6 (00:00) 22.3 8.33 (01:10) 5 (01:10) 0 0 0 0 0
16-09-2019 23.6 (12:50) 19.9 (00:00) 21.8 12.78 (16:40) 7.5 (16:40) 1.2 0 0 0.4 0.8

Gráficas

Temp. máximas Temp. mínimas Temp. medias Precipitaciones Rachas de viento máximas Velocidades máximas media en intervalos de 10 minutos

Datos horarios

Fecha y hora oficial Temperatura (ºC) Velocidad del viento (km/h) Dirección del viento Racha (km/h) Dirección de racha Precipitación (mm) Presión (hPa) Tendencia (hPa) Humedad (%)
2019-10-15 23:00:00 19.4 12 Nordeste 23 Nordeste 0 -- -- 74
2019-10-15 22:00:00 19.3 14 Nordeste 27 Nordeste 0 -- -- 75
2019-10-15 21:00:00 19.5 16 Nordeste 28 Nordeste 0 -- -- 73
2019-10-15 20:00:00 19.9 17 Nordeste 31 Nordeste 0 -- -- 66
2019-10-15 19:00:00 20.9 21 Nordeste 34 Nordeste 0 -- -- 59
2019-10-15 18:00:00 22.1 18 Nordeste 33 Nordeste 0 -- -- 54
2019-10-15 17:00:00 22.5 23 Nordeste 35 Nordeste 0 -- -- 47
2019-10-15 16:00:00 22.6 16 Nordeste 28 Este 0 -- -- 51
2019-10-15 15:00:00 22.7 14 Nordeste 27 Nordeste 0 -- -- 51
2019-10-15 14:00:00 23.2 11 Nordeste 33 Este 0 -- -- 50
2019-10-15 13:00:00 22.5 12 Nordeste 26 Nordeste 0 -- -- 55
2019-10-15 12:00:00 21.5 15 Nordeste 31 Este 0 -- -- 59
2019-10-15 11:00:00 20.7 14 Nordeste 26 Nordeste 0 -- -- 63
2019-10-15 10:00:00 19.9 16 Nordeste 24 Nordeste 0 -- -- 64
2019-10-15 09:00:00 17.8 8 Nordeste 14 Nordeste 0 -- -- 78
2019-10-15 08:00:00 16.7 8 Nordeste 13 Nordeste 0 -- -- 84
2019-10-15 07:00:00 16.5 6 Nordeste 10 Nordeste 0 -- -- 84
2019-10-15 06:00:00 16.9 6 Nordeste 13 Nordeste 0 -- -- 83
2019-10-15 05:00:00 17.3 9 Este 14 Este 0 -- -- 82
2019-10-15 04:00:00 17.6 8 Nordeste 18 Este 0 -- -- 81
2019-10-15 03:00:00 17.9 12 Nordeste 17 Nordeste 0 -- -- 82
2019-10-15 02:00:00 18.1 10 Nordeste 18 Nordeste 0 -- -- 81
2019-10-15 01:00:00 18.7 10 Nordeste 20 Nordeste 0 -- -- 80
2019-10-15 00:00:00 19.1 11 Nordeste 19 Nordeste 0 -- -- 80
2019-10-14 23:00:00 18.8 10 Nordeste 21 Nordeste 0 -- -- 79
2019-10-14 22:00:00 19.2 10 Nordeste 25 Nordeste 0 -- -- 80
2019-10-14 21:00:00 19.8 17 Nordeste 28 Este 0 -- -- 79
2019-10-14 20:00:00 20.3 18 Nordeste 28 Nordeste 0 -- -- 77
2019-10-14 19:00:00 20.9 18 Nordeste 28 Nordeste 0 -- -- 76
2019-10-14 18:00:00 21.5 16 Nordeste 28 Nordeste 0 -- -- 74
2019-10-14 17:00:00 22.5 14 Nordeste 26 Nordeste 0 -- -- 68
2019-10-14 16:00:00 23 17 Nordeste 29 Nordeste 0 -- -- 69
2019-10-14 15:00:00 22.6 18 Nordeste 31 Nordeste 0 -- -- 70
2019-10-14 14:00:00 23.6 14 Nordeste 26 Nordeste 0 -- -- 64
2019-10-14 13:00:00 23.1 8 Nordeste 22 Nordeste 0 -- -- 65
2019-10-14 12:00:00 22.3 10 Noroeste 22 Noroeste 0 -- -- 72
2019-10-14 11:00:00 21.3 10 Norte 18 Nordeste 0 -- -- 75
2019-10-14 10:00:00 21 10 Norte 20 Norte 0 -- -- 78
2019-10-14 09:00:00 18.4 2 Sudeste 6 Sudeste 0 -- -- 89
2019-10-14 08:00:00 16.3 3 Sudeste 5 Sudeste 0 -- -- 89
2019-10-14 07:00:00 15.7 3 Sur 5 Sudeste 0 -- -- 87
2019-10-14 06:00:00 16 3 Sudoeste 4 Oeste 0 -- -- 85
2019-10-14 05:00:00 16.2 2 Oeste 5 Oeste 0 -- -- 83
2019-10-14 04:00:00 16.4 0 Calma 8 Noroeste 0 -- -- 83
2019-10-14 03:00:00 16.7 6 Oeste 8 Oeste 0 -- -- 83
2019-10-14 02:00:00 16.2 0 Calma 3 Oeste 0 -- -- 76
2019-10-14 01:00:00 16.9 0 Calma 5 Noroeste 0 -- -- 74
2019-10-14 00:00:00 17.1 3 Sur 4 Noroeste 0 -- -- 73
2019-10-13 23:00:00 17.8 4 Oeste 6 Noroeste 0 -- -- 73
2019-10-13 22:00:00 18.4 4 Oeste 10 Oeste 0 -- -- 70
2019-10-13 21:00:00 19.1 9 Oeste 10 Oeste 0 -- -- 67
2019-10-13 20:00:00 20.4 8 Oeste 17 Oeste 0 -- -- 63
2019-10-13 19:00:00 22.4 12 Noroeste 30 Noroeste 0 -- -- 56
2019-10-13 18:00:00 23.7 18 Noroeste 28 Oeste 0 -- -- 50
2019-10-13 17:00:00 24.6 18 Oeste 28 Oeste 0 -- -- 48
2019-10-13 16:00:00 24.9 15 Oeste 26 Oeste 0 -- -- 51
2019-10-13 15:00:00 24.6 13 Oeste 24 Oeste 0 -- -- 47
2019-10-13 14:00:00 25 17 Oeste 28 Oeste 0 -- -- 48
2019-10-13 13:00:00 24.2 12 Noroeste 22 Oeste 0 -- -- 50
2019-10-13 12:00:00 22.6 9 Oeste 20 Oeste 0 -- -- 56
2019-10-13 11:00:00 21.8 9 Noroeste 15 Noroeste 0 -- -- 62
2019-10-13 10:00:00 20.6 4 Oeste 9 Oeste 0 -- -- 65
2019-10-13 09:00:00 17.3 2 Sudeste 4 Sudeste 0 -- -- 83
2019-10-13 08:00:00 15.8 4 Sudeste 6 Sudeste 0 -- -- 87
2019-10-13 07:00:00 15.8 4 Sudeste 5 Sudeste 0 -- -- 88
2019-10-13 06:00:00 15.4 0 Calma 4 Sudeste 0 -- -- 87
2019-10-13 05:00:00 15.8 4 Sudeste 5 Sudeste 0 -- -- 86
2019-10-13 04:00:00 16.4 2 Sudeste 5 Sudeste 0 -- -- 86
2019-10-13 03:00:00 17.4 3 Este 7 Este 0 -- -- 81
2019-10-13 02:00:00 18 5 Nordeste 13 Nordeste 0 -- -- 82
2019-10-13 01:00:00 17.9 2 Este 5 Este 0 -- -- 81
2019-10-13 00:00:00 18.6 0 Calma 11 Norte 0 -- -- 78
2019-10-12 23:00:00 19.5 6 Norte 18 Norte 0 -- -- 79
2019-10-12 22:00:00 19.8 7 Norte 18 Norte 0 -- -- 78
2019-10-12 21:00:00 20.2 9 Norte 21 Norte 0 -- -- 79
2019-10-12 20:00:00 20.6 12 Norte 24 Noroeste 0 -- -- 78
2019-10-12 19:00:00 22.1 10 Noroeste 24 Noroeste 0 -- -- 66
2019-10-12 18:00:00 22.8 13 Norte 28 Noroeste 0 -- -- 65
2019-10-12 17:00:00 24.1 14 Noroeste 27 Noroeste 0 -- -- 60
2019-10-12 16:00:00 24.3 13 Norte 26 Noroeste 0 -- -- 60
2019-10-12 15:00:00 25.5 11 Norte 23 Nordeste 0 -- -- 53
2019-10-12 14:00:00 25.9 9 Norte 21 Nordeste 0 -- -- 46
2019-10-12 13:00:00 24.5 7 Este 19 Este 0 -- -- 51
2019-10-12 12:00:00 23.4 9 Nordeste 22 Nordeste 0 -- -- 58
2019-10-12 11:00:00 22.2 10 Nordeste 18 Nordeste 0 -- -- 62
2019-10-12 10:00:00 20.5 10 Nordeste 16 Este 0 -- -- 74
2019-10-12 09:00:00 16.9 0 Calma -- -- 0 -- -- 90
2019-10-12 08:00:00 16.1 3 Sudeste 5 Este 0 -- -- 89
2019-10-12 07:00:00 17.1 4 Sudeste 6 Sudeste 0 -- -- 87
2019-10-12 06:00:00 17.6 0 Calma 6 Nordeste 0 -- -- 86
2019-10-12 05:00:00 18.1 2 Sudeste 12 Norte 0 -- -- 86
2019-10-12 04:00:00 18.7 5 Norte 14 Norte 0 -- -- 85
2019-10-12 03:00:00 18.9 4 Norte 13 Noroeste 0 -- -- 85
2019-10-12 02:00:00 17.8 0 Calma 6 Noroeste 0 -- -- 86
2019-10-12 01:00:00 17.8 3 Sudoeste 4 Oeste 0 -- -- 83
2019-10-12 00:00:00 18 4 Oeste 7 Norte 0 -- -- 82
2019-10-11 23:00:00 18.4 0 Calma 6 Noroeste 0 -- -- 79
2019-10-11 22:00:00 19.3 4 Noroeste 13 Noroeste 0 -- -- 76
2019-10-11 21:00:00 20.2 8 Noroeste 15 Noroeste 0 -- -- 75
2019-10-11 20:00:00 20.9 5 Noroeste 21 Noroeste 0 -- -- 70
2019-10-11 19:00:00 22.7 10 Noroeste 21 Noroeste 0 -- -- 62
2019-10-11 18:00:00 24.2 11 Noroeste 24 Noroeste 0 -- -- 55
2019-10-11 17:00:00 25.1 14 Noroeste 28 Oeste 0 -- -- 51
2019-10-11 16:00:00 25.5 15 Noroeste 26 Noroeste 0 -- -- 49
2019-10-11 15:00:00 25.5 12 Noroeste 28 Noroeste 0 -- -- 49
2019-10-11 14:00:00 25 11 Noroeste 22 Noroeste 0 -- -- 50
2019-10-11 13:00:00 24.6 10 Norte 23 Noroeste 0 -- -- 52
2019-10-11 12:00:00 24.3 10 Noroeste 19 Noroeste 0 -- -- 54
2019-10-11 11:00:00 22.3 8 Noroeste 15 Norte 0 -- -- 64
2019-10-11 10:00:00 20.6 6 Noroeste 11 Noroeste 0 -- -- 78
2019-10-11 09:00:00 16.8 0 Calma 4 Sudoeste 0 -- -- 90
2019-10-11 08:00:00 15.6 2 Oeste -- -- 0 -- -- 89
2019-10-11 07:00:00 16 2 Oeste 4 Oeste 0 -- -- 88
2019-10-11 06:00:00 16.5 0 Calma 4 Sudoeste 0 -- -- 87
2019-10-11 05:00:00 16.9 2 Sudoeste 5 Oeste 0 -- -- 91
2019-10-11 04:00:00 16.6 -- -- -- -- 0 -- -- 87
2019-10-11 03:00:00 17.4 3 Oeste 5 Oeste 0 -- -- 87
2019-10-11 02:00:00 17.3 2 Sur 4 Sur 0 -- -- 83
2019-10-11 01:00:00 18.3 3 Nordeste 4 Nordeste 0 -- -- 81
2019-10-11 00:00:00 18.8 0 Calma 5 Sur 0 -- -- 80
2019-10-10 23:00:00 19.8 2 Este 4 Nordeste 0 -- -- 81
2019-10-10 22:00:00 20.2 2 Nordeste 9 Nordeste 0 -- -- 80
2019-10-10 21:00:00 20.9 5 Nordeste 11 Nordeste 0 -- -- 76
2019-10-10 20:00:00 21.2 5 Nordeste 13 Nordeste 0 -- -- 73
2019-10-10 19:00:00 21.8 8 Nordeste 17 Este 0 -- -- 71
2019-10-10 18:00:00 22.5 8 Nordeste 20 Nordeste 0 -- -- 68
2019-10-10 17:00:00 22.8 11 Nordeste 22 Nordeste 0 -- -- 66
2019-10-10 16:00:00 23.3 10 Nordeste 29 Nordeste 0 -- -- 63
2019-10-10 15:00:00 24.5 8 Nordeste 22 Este 0 -- -- 61
2019-10-10 14:00:00 25 7 Norte 22 Noroeste 0 -- -- 53
2019-10-10 13:00:00 24.4 9 Este 19 Nordeste 0 -- -- 56
2019-10-10 12:00:00 23.7 8 Nordeste 22 Nordeste 0 -- -- 58
2019-10-10 11:00:00 22.8 10 Nordeste 19 Nordeste 0 -- -- 62
2019-10-10 10:00:00 21.6 4 Nordeste 8 Nordeste 0 -- -- 71
2019-10-10 09:00:00 19.2 0 Calma 5 Este 0 -- -- 81
2019-10-10 08:00:00 18.9 0 Calma 12 Norte 0 -- -- 78
2019-10-10 07:00:00 18.7 2 Nordeste 10 Norte 0 -- -- 78
2019-10-10 06:00:00 19.6 6 Nordeste 13 Norte 0 -- -- 71
2019-10-10 05:00:00 19.6 4 Nordeste 16 Norte 0 -- -- 71
2019-10-10 04:00:00 20.2 7 Norte 16 Norte 0 -- -- 72
2019-10-10 03:00:00 19.5 3 Oeste 4 Oeste 0 -- -- 77
2019-10-10 02:00:00 19.8 0 Calma 5 Nordeste 0 -- -- 76
2019-10-10 01:00:00 20.5 5 Norte 13 Nordeste 0 -- -- 74
2019-10-10 00:00:00 20.3 7 Nordeste 14 Nordeste 0 -- -- 74
2019-10-09 23:00:00 20.3 6 Nordeste 9 Norte 0 -- -- 81
2019-10-09 22:00:00 20.3 5 Norte 13 Norte 0 -- -- 77
2019-10-09 21:00:00 20.6 7 Norte 18 Nordeste 0 -- -- 76
2019-10-09 20:00:00 21.2 10 Norte 18 Nordeste 0 -- -- 71
2019-10-09 19:00:00 22.1 10 Nordeste 22 Nordeste 0 -- -- 70
2019-10-09 18:00:00 22.5 12 Nordeste 22 Nordeste 0 -- -- 68
2019-10-09 17:00:00 23.2 13 Nordeste 23 Nordeste 0 -- -- 66
2019-10-09 16:00:00 24.4 12 Nordeste 26 Nordeste 0 -- -- 62
2019-10-09 15:00:00 25.1 11 Norte 24 Nordeste 0 -- -- 58
2019-10-09 14:00:00 24.8 12 Nordeste 23 Nordeste 0 -- -- 58
2019-10-09 13:00:00 24.1 10 Nordeste 21 Nordeste 0 -- -- 56
2019-10-09 12:00:00 23.1 11 Nordeste 24 Nordeste 0 -- -- 60
2019-10-09 11:00:00 21.8 13 Norte 24 Norte 0 -- -- 66
2019-10-09 10:00:00 20.6 13 Norte 23 Norte 0 -- -- 72
2019-10-09 09:00:00 18.2 3 Nordeste 12 Norte 0 -- -- 82
2019-10-09 08:00:00 17.7 4 Nordeste 13 Norte 0 -- -- 82
2019-10-09 07:00:00 18.4 5 Nordeste 17 Norte 0 -- -- 81
2019-10-09 06:00:00 18.8 9 Norte 18 Norte 0 -- -- 80
2019-10-09 05:00:00 18.8 7 Norte 18 Norte 0 -- -- 81
2019-10-09 04:00:00 18.7 9 Norte 21 Norte 0 -- -- 82
2019-10-09 03:00:00 18.7 9 Norte 17 Norte 0 -- -- 83
2019-10-09 02:00:00 18.8 8 Norte 15 Norte 0 -- -- 83
2019-10-09 01:00:00 19.3 8 Norte 17 Norte 0 -- -- 81
2019-10-09 00:00:00 19.2 6 Norte 15 Norte 0 -- -- 83
2019-10-08 23:00:00 19.5 8 Norte 18 Norte 0 -- -- 83
2019-10-08 22:00:00 19.8 9 Norte 20 Norte 0 -- -- 82
2019-10-08 21:00:00 20.4 7 Norte 18 Noroeste 0 -- -- 80
2019-10-08 20:00:00 20.9 8 Norte 19 Norte 0 -- -- 79
2019-10-08 19:00:00 22.4 11 Nordeste 19 Nordeste 0 -- -- 74
2019-10-08 18:00:00 24.3 10 Nordeste 18 Nordeste 0 -- -- 66
2019-10-08 17:00:00 24.6 11 Nordeste 22 Nordeste 0 -- -- 64
2019-10-08 16:00:00 24.3 12 Nordeste 24 Nordeste 0 -- -- 65
2019-10-08 15:00:00 24.5 14 Nordeste 27 Nordeste 0 -- -- 63
2019-10-08 14:00:00 24.6 13 Nordeste 26 Nordeste 0 -- -- 62
2019-10-08 13:00:00 24.4 13 Nordeste 23 Nordeste 0 -- -- 62
2019-10-08 12:00:00 23.7 13 Nordeste 21 Este 0 -- -- 62
2019-10-08 11:00:00 22.5 9 Nordeste 18 Norte 0 -- -- 69
2019-10-08 10:00:00 20.7 8 Norte 15 Norte 0 -- -- 77
2019-10-08 09:00:00 19.4 4 Norte 15 Norte 0 -- -- 84
2019-10-08 08:00:00 19.1 4 Norte 12 Nordeste 0 -- -- 84
2019-10-08 07:00:00 18.9 2 Noroeste 11 Noroeste 0 -- -- 86
2019-10-08 06:00:00 19.3 4 Noroeste 12 Norte 0 -- -- 85
2019-10-08 05:00:00 19.4 7 Nordeste 14 Nordeste 0 -- -- 85
2019-10-08 04:00:00 19.5 8 Nordeste 18 Nordeste 0 -- -- 85
2019-10-08 03:00:00 19.7 10 Nordeste 21 Nordeste 0 -- -- 86
2019-10-08 02:00:00 19.7 11 Este 19 Nordeste 0 -- -- 86
2019-10-08 01:00:00 19.7 12 Este 20 Nordeste 0 -- -- 86
2019-10-08 00:00:00 19.8 8 Este 17 Nordeste 0 -- -- 85
2019-10-07 23:00:00 20.2 8 Este 16 Este 0 -- -- 83
2019-10-07 22:00:00 20.7 9 Este 16 Este 0 -- -- 83
2019-10-07 21:00:00 20.9 2 Este 17 Noroeste 0 -- -- 80
2019-10-07 20:00:00 21.3 9 Noroeste 18 Norte 0 -- -- 80
2019-10-07 19:00:00 22.9 8 Norte 19 Norte 0 -- -- 70
2019-10-07 18:00:00 23.8 14 Nordeste 26 Norte 0 -- -- 68
2019-10-07 17:00:00 24.5 14 Norte 27 Noroeste 0 -- -- 65
2019-10-07 16:00:00 25.8 11 Noroeste 27 Noroeste 0 -- -- 60
2019-10-07 15:00:00 25.7 11 Norte 22 Norte 0 -- -- 59
2019-10-07 14:00:00 24.8 12 Nordeste 20 Este 0 -- -- 62
2019-10-07 13:00:00 23.8 9 Nordeste 22 Nordeste 0 -- -- 66
2019-10-07 12:00:00 22.5 12 Nordeste 22 Nordeste 0 -- -- 71
2019-10-07 11:00:00 21.6 10 Nordeste 23 Este 0 -- -- 74
2019-10-07 10:00:00 20.8 14 Nordeste 23 Nordeste 0 -- -- 77
2019-10-07 09:00:00 19.9 11 Nordeste 19 Nordeste 0 -- -- 80
2019-10-07 08:00:00 19.5 10 Nordeste 18 Nordeste 0 -- -- 81
2019-10-07 07:00:00 19.4 10 Nordeste 20 Norte 0 -- -- 80
2019-10-07 06:00:00 19.5 9 Nordeste 20 Nordeste 0 -- -- 80
2019-10-07 05:00:00 19.5 12 Nordeste 21 Nordeste 0 -- -- 80
2019-10-07 04:00:00 19.5 14 Nordeste 24 Nordeste 0 -- -- 79
2019-10-07 03:00:00 19.6 12 Norte 19 Norte 0 -- -- 78
2019-10-07 02:00:00 19.8 12 Nordeste 21 Nordeste 0 -- -- 78
2019-10-07 01:00:00 20 12 Nordeste 22 Nordeste 0 -- -- 78
2019-10-07 00:00:00 20.2 15 Nordeste 24 Nordeste 0 -- -- 78
2019-10-06 23:00:00 20.2 13 Nordeste 24 Nordeste 0 -- -- 78
2019-10-06 22:00:00 20.4 14 Nordeste 26 Nordeste 0 -- -- 78
2019-10-06 21:00:00 20.9 13 Nordeste 26 Nordeste 0 -- -- 76
2019-10-06 20:00:00 21 16 Nordeste 27 Nordeste 0 -- -- 78
2019-10-06 19:00:00 21.6 16 Nordeste 29 Nordeste 0 -- -- 77
2019-10-06 18:00:00 22.5 15 Nordeste 26 Nordeste 0 -- -- 73
2019-10-06 17:00:00 23.6 13 Nordeste 25 Norte 0 -- -- 68
2019-10-06 16:00:00 24 15 Nordeste 30 Nordeste 0 -- -- 66
2019-10-06 15:00:00 24.3 15 Nordeste 32 Nordeste 0 -- -- 64
2019-10-06 14:00:00 23.6 17 Nordeste 31 Nordeste 0 -- -- 65
2019-10-06 13:00:00 23.6 18 Nordeste 31 Nordeste 0 -- -- 65
2019-10-06 12:00:00 22.3 17 Nordeste 30 Nordeste 0 -- -- 69
2019-10-06 11:00:00 21.4 18 Nordeste 30 Nordeste 0 -- -- 72
2019-10-06 10:00:00 20.6 15 Nordeste 26 Nordeste 0 -- -- 77
2019-10-06 09:00:00 19.6 6 Nordeste 10 Nordeste 0 -- -- 81
2019-10-06 08:00:00 19.3 5 Norte 13 Norte 0 -- -- 82
2019-10-06 07:00:00 19 3 Nordeste 14 Nordeste 0 -- -- 82
2019-10-06 06:00:00 19.3 6 Nordeste 22 Nordeste 0 -- -- 81
2019-10-06 05:00:00 20.2 11 Nordeste 20 Norte 0 -- -- 77
2019-10-06 04:00:00 20.2 13 Nordeste 27 Nordeste 0 -- -- 77
2019-10-06 03:00:00 20.2 12 Nordeste 26 Nordeste 0 -- -- 79
2019-10-06 02:00:00 20.4 12 Nordeste 28 Nordeste 0 -- -- 78
2019-10-06 01:00:00 20.4 18 Nordeste 30 Nordeste 0 -- -- 77
2019-10-06 00:00:00 20.2 15 Nordeste 28 Nordeste 0 -- -- 78
2019-10-05 23:00:00 20.4 16 Nordeste 24 Nordeste 0 -- -- 79
2019-10-05 22:00:00 20.6 12 Nordeste 23 Nordeste 0 -- -- 79
2019-10-05 21:00:00 21.1 14 Nordeste 25 Nordeste 0 -- -- 79
2019-10-05 20:00:00 21.7 14 Nordeste 30 Nordeste 0 -- -- 74
2019-10-05 19:00:00 23 18 Nordeste 32 Norte 0 -- -- 67
2019-10-05 18:00:00 23.6 18 Norte 34 Nordeste 0 -- -- 70
2019-10-05 17:00:00 25.1 21 Nordeste 38 Nordeste 0 -- -- 61
2019-10-05 16:00:00 25 18 Norte 36 Nordeste 0 -- -- 65
2019-10-05 15:00:00 25.4 21 Nordeste 40 Este 0 -- -- 63
2019-10-05 14:00:00 25.3 24 Nordeste 39 Nordeste 0 -- -- 62
2019-10-05 13:00:00 24.6 23 Nordeste 36 Nordeste 0 -- -- 64
2019-10-05 12:00:00 24.7 21 Nordeste 33 Nordeste 0 -- -- 61
2019-10-05 11:00:00 23.6 15 Norte 27 Norte 0 -- -- 66
2019-10-05 10:00:00 21.9 14 Norte 26 Norte 0 -- -- 75
2019-10-05 09:00:00 19.2 5 Norte 11 Norte 0 -- -- 90
2019-10-05 08:00:00 17.9 3 Sudeste 6 Sudeste 0 -- -- 91
2019-10-05 07:00:00 17.8 2 Sudeste 8 Nordeste 0 -- -- 88
2019-10-05 06:00:00 17.6 2 Este 9 Sudeste 0 -- -- 87
2019-10-05 05:00:00 17.9 4 Sudeste 8 Sudeste 0 -- -- 87
2019-10-05 04:00:00 18.2 5 Este 7 Este 0 -- -- 88
2019-10-05 03:00:00 18.2 4 Sudeste 8 Este 0 -- -- 87
2019-10-05 02:00:00 18.4 4 Sudeste 7 Este 0 -- -- 86
2019-10-05 01:00:00 18.9 0 Calma 10 Norte 0 -- -- 84
2019-10-05 00:00:00 19.7 8 Norte 18 Norte 0 -- -- 85
2019-10-04 23:00:00 20.1 12 Norte 26 Norte 0 -- -- 84
2019-10-04 22:00:00 20.5 14 Norte 24 Norte 0 -- -- 81
2019-10-04 21:00:00 20.6 10 Norte 23 Norte 0 -- -- 80
2019-10-04 20:00:00 20.9 13 Norte 37 Norte 0 -- -- 80
2019-10-04 19:00:00 22.4 18 Norte 37 Norte 0 -- -- 73
2019-10-04 18:00:00 24.1 17 Norte 36 Nordeste 0 -- -- 67
2019-10-04 17:00:00 25.1 17 Norte 33 Norte 0 -- -- 63
2019-10-04 16:00:00 25.3 16 Norte 28 Norte 0 -- -- 63
2019-10-04 15:00:00 26 15 Nordeste 30 Nordeste 0 -- -- 61
2019-10-04 14:00:00 25.7 16 Norte 31 Este 0 -- -- 61
2019-10-04 13:00:00 24.8 18 Nordeste 32 Nordeste 0 -- -- 64
2019-10-04 12:00:00 24.4 19 Nordeste 29 Nordeste 0 -- -- 65
2019-10-04 11:00:00 24 15 Nordeste 26 Nordeste 0 -- -- 62
2019-10-04 10:00:00 22.1 14 Nordeste 22 Nordeste 0 -- -- 74
2019-10-04 09:00:00 19.9 8 Nordeste 27 Nordeste 0 -- -- 86
2019-10-04 08:00:00 19.3 15 Norte 32 Norte 0 -- -- 87
2019-10-04 07:00:00 19.5 14 Norte 30 Norte 0 -- -- 87
2019-10-04 06:00:00 19.6 15 Norte 33 Noroeste 0 -- -- 87
2019-10-04 05:00:00 19.6 21 Norte 38 Norte 0 -- -- 87
2019-10-04 04:00:00 19.7 21 Norte 41 Norte 0 -- -- 88
2019-10-04 03:00:00 19.8 18 Norte 37 Norte 0 -- -- 89
2019-10-04 02:00:00 19.9 19 Norte 40 Noroeste 0 -- -- 88
2019-10-04 01:00:00 19.9 14 Norte 27 Norte 0 -- -- 87
2019-10-04 00:00:00 20 14 Norte 31 Norte 0 -- -- 86
2019-10-03 23:00:00 20.1 13 Norte 34 Norte 0 -- -- 86
2019-10-03 22:00:00 20.3 22 Norte 44 Norte 0 -- -- 85
2019-10-03 21:00:00 20.5 20 Norte 37 Norte 0 -- -- 84
2019-10-03 20:00:00 20.9 23 Norte 41 Norte 0 -- -- 82
2019-10-03 19:00:00 22.2 26 Norte 45 Norte 0 -- -- 76
2019-10-03 18:00:00 23.3 27 Norte 43 Norte 0 -- -- 71
2019-10-03 17:00:00 25 23 Norte 41 Norte 0 -- -- 66
2019-10-03 16:00:00 25.7 19 Norte 38 Noroeste 0 -- -- 64
2019-10-03 15:00:00 26.1 21 Norte 38 Norte 0 -- -- 62
2019-10-03 14:00:00 25.7 21 Norte 38 Norte 0 -- -- 63
2019-10-03 13:00:00 26 19 Norte 32 Norte 0 -- -- 63
2019-10-03 12:00:00 25.4 15 Norte 32 Noroeste 0 -- -- 64
2019-10-03 11:00:00 24.7 12 Norte 21 Nordeste 0 -- -- 65
2019-10-03 10:00:00 22.7 12 Norte 26 Norte 0 -- -- 76
2019-10-03 09:00:00 20.8 8 Norte 17 Norte 0 -- -- 86
2019-10-03 08:00:00 19.1 5 Sur 8 Sur 0 -- -- 85
2019-10-03 07:00:00 19.3 0 Calma 9 Sudoeste 0 -- -- 82
2019-10-03 06:00:00 19.7 5 Oeste 9 Oeste 0 -- -- 81
2019-10-03 05:00:00 21.6 5 Nordeste 19 Este 0 -- -- 63
2019-10-03 04:00:00 22.5 13 Nordeste 23 Nordeste 0 -- -- 60
2019-10-03 03:00:00 22.5 16 Nordeste 29 Nordeste 0 -- -- 63
2019-10-03 02:00:00 22.4 20 Nordeste 30 Nordeste 0 -- -- 66
2019-10-03 01:00:00 22.5 18 Nordeste 27 Nordeste 0 -- -- 64
2019-10-03 00:00:00 22.7 13 Nordeste 19 Este 0 -- -- 61
2019-10-02 23:00:00 23.1 9 Este 15 Este 0 -- -- 57
2019-10-02 22:00:00 23 6 Este 10 Este 0 -- -- 57
2019-10-02 21:00:00 24.2 3 Nordeste 18 Nordeste 0 -- -- 51
2019-10-02 20:00:00 24.9 13 Este 25 Este 0 -- -- 47
2019-10-02 19:00:00 25.9 13 Este 30 Sudeste 0 -- -- 48
2019-10-02 18:00:00 27.1 20 Este 37 Este 0 -- -- 43
2019-10-02 17:00:00 27.2 24 Este 41 Este 0 -- -- 45
2019-10-02 16:00:00 27.7 27 Este 39 Este 0 -- -- 42
2019-10-02 15:00:00 27.8 28 Este 41 Este 0 -- -- 42
2019-10-02 14:00:00 27.7 26 Este 40 Este 0 -- -- 42
2019-10-02 13:00:00 27.2 21 Este 41 Este 0 -- -- 45
2019-10-02 12:00:00 26.5 19 Este 33 Este 0 -- -- 50
2019-10-02 11:00:00 24.5 23 Este 36 Este 0 -- -- 61
2019-10-02 10:00:00 22.4 23 Este 35 Este 0 -- -- 76
2019-10-02 09:00:00 20.8 18 Este 30 Este 0 -- -- 84
2019-10-02 08:00:00 19.7 20 Este 32 Este 0 -- -- 89
2019-10-02 07:00:00 21 17 Este 28 Este 0 -- -- 73
2019-10-02 06:00:00 21.5 19 Este 30 Este 0 -- -- 64
2019-10-02 05:00:00 22 21 Este 33 Este 0 -- -- 61
2019-10-02 04:00:00 21.5 23 Este 41 Este 0 -- -- 69
2019-10-02 03:00:00 21.8 25 Este 44 Este 0 -- -- 68
2019-10-02 02:00:00 22.1 28 Este 41 Este 0 -- -- 65
2019-10-02 01:00:00 22.6 27 Este 43 Este 0 -- -- 57
2019-10-02 00:00:00 22.5 29 Este 44 Nordeste 0 -- -- 62
2019-10-01 23:00:00 23.1 26 Este 46 Este 0 -- -- 54
2019-10-01 22:00:00 23.4 22 Este 39 Este 0 -- -- 49
2019-10-01 21:00:00 23.7 12 Este 32 Nordeste 0 -- -- 44
2019-10-01 20:00:00 24.3 12 Sudeste 23 Sudeste 0 -- -- 53
2019-10-01 19:00:00 26.4 13 Este 24 Este 0 -- -- 46
2019-10-01 18:00:00 28.6 10 Nordeste 29 Sudeste 0 -- -- 35
2019-10-01 17:00:00 28.5 15 Este 31 Nordeste 0 -- -- 42
2019-10-01 16:00:00 29 20 Nordeste 36 Nordeste 0 -- -- 42
2019-10-01 15:00:00 28.7 19 Nordeste 33 Nordeste 0 -- -- 43
2019-10-01 14:00:00 28.6 21 Nordeste 33 Nordeste 0 -- -- 43
2019-10-01 13:00:00 28.8 17 Nordeste 30 Este 0 -- -- 45
2019-10-01 12:00:00 28.2 13 Este 28 Este 0 -- -- 43
2019-10-01 11:00:00 27.4 17 Este 28 Este 0 -- -- 42
2019-10-01 10:00:00 25.8 11 Este 20 Nordeste 0 -- -- 45
2019-10-01 09:00:00 23.1 10 Este 15 Este 0 -- -- 53
2019-10-01 08:00:00 20.3 3 Este 17 Nordeste 0 -- -- 70
2019-10-01 07:00:00 20 5 Sudeste 11 Sudeste 0 -- -- 72
2019-10-01 06:00:00 19.7 8 Sudeste 15 Sudeste 0 -- -- 91
2019-10-01 05:00:00 19.9 12 Sudeste 25 Sudeste 0 -- -- 90
2019-10-01 04:00:00 20 18 Sudeste 30 Sudeste 0 -- -- 91
2019-10-01 03:00:00 21.3 11 Sudeste 25 Nordeste 0 -- -- 82
2019-10-01 02:00:00 20.8 13 Sudeste 28 Este 0 -- -- 80
2019-10-01 01:00:00 20.6 18 Este 32 Este 0 -- -- 91
2019-10-01 00:00:00 21.1 15 Este 26 Este 0 -- -- 87
2019-09-30 23:00:00 20.6 3 Oeste 9 Oeste 0 -- -- 90
2019-09-30 22:00:00 21 7 Oeste 16 Noroeste 0 -- -- 89
2019-09-30 21:00:00 21.3 10 Noroeste 19 Noroeste 0 -- -- 88
2019-09-30 20:00:00 22.1 12 Noroeste 23 Noroeste 0 -- -- 85
2019-09-30 19:00:00 23.1 13 Noroeste 29 Noroeste 0 -- -- 81
2019-09-30 18:00:00 24.8 15 Noroeste 30 Noroeste 0 -- -- 74
2019-09-30 17:00:00 27 17 Noroeste 31 Noroeste 0 -- -- 65
2019-09-30 16:00:00 28.9 17 Noroeste 34 Noroeste 0 -- -- 59
2019-09-30 15:00:00 30.5 8 Nordeste 22 Este 0 -- -- 45
2019-09-30 14:00:00 29.6 13 Este 27 Este 0 -- -- 46
2019-09-30 13:00:00 29.6 17 Este 28 Nordeste 0 -- -- 46
2019-09-30 12:00:00 28.8 14 Este 28 Este 0 -- -- 46
2019-09-30 11:00:00 27.6 4 Nordeste 10 Noroeste 0 -- -- 61
2019-09-30 10:00:00 22.9 4 Noroeste 14 Noroeste 0 -- -- 82
2019-09-30 09:00:00 20.6 5 Noroeste 13 Oeste 0 -- -- 92
2019-09-30 08:00:00 20.2 3 Oeste 15 Noroeste 0 -- -- 92
2019-09-30 07:00:00 20.2 5 Noroeste 18 Noroeste 0 -- -- 92
2019-09-30 06:00:00 20 4 Oeste 12 Noroeste 0 -- -- 92
2019-09-30 05:00:00 19.7 6 Noroeste 14 Noroeste 0 -- -- 92
2019-09-30 04:00:00 18.8 0 Calma 9 Oeste 0 -- -- 82
2019-09-30 03:00:00 18.8 4 Noroeste 10 Nordeste 0 -- -- 80
2019-09-30 02:00:00 19.6 0 Calma 11 Noroeste 0 -- -- 87
2019-09-30 01:00:00 20.2 5 Noroeste 18 Este 0 -- -- 84
2019-09-30 00:00:00 20.8 4 Sudeste 16 Sur 0 -- -- 67
2019-09-29 23:00:00 20.9 4 Sudoeste 17 Este 0 -- -- 81
2019-09-29 22:00:00 20.5 2 Sur 7 Noroeste 0 -- -- 84
2019-09-29 21:00:00 21.2 5 Noroeste 12 Noroeste 0 -- -- 84
2019-09-29 20:00:00 22.1 8 Noroeste 17 Noroeste 0 -- -- 81
2019-09-29 19:00:00 23.6 8 Noroeste 21 Noroeste 0 -- -- 74
2019-09-29 18:00:00 25 7 Norte 22 Nordeste 0 -- -- 68
2019-09-29 17:00:00 25.4 13 Nordeste 24 Este 0 -- -- 63
2019-09-29 16:00:00 26.2 12 Nordeste 27 Nordeste 0 -- -- 60
2019-09-29 15:00:00 26.7 19 Nordeste 30 Nordeste 0 -- -- 55
2019-09-29 14:00:00 26.9 15 Este 36 Nordeste 0 -- -- 49
2019-09-29 13:00:00 25.7 19 Este 33 Nordeste 0 -- -- 59
2019-09-29 12:00:00 23.9 18 Este 28 Nordeste 0 -- -- 67
2019-09-29 11:00:00 22.9 15 Este 24 Este 0 -- -- 69
2019-09-29 10:00:00 20.3 15 Nordeste 27 Nordeste 0 -- -- 84
2019-09-29 09:00:00 19.9 19 Nordeste 31 Nordeste 0 -- -- 86
2019-09-29 08:00:00 19.7 12 Nordeste 26 Nordeste 0 -- -- 87
2019-09-29 07:00:00 19.6 13 Nordeste 24 Nordeste 0 -- -- 86
2019-09-29 06:00:00 19.6 15 Nordeste 27 Este 0 -- -- 87
2019-09-29 05:00:00 19.7 13 Este 22 Nordeste 0 -- -- 87
2019-09-29 04:00:00 19.5 11 Este 21 Este 0 -- -- 87
2019-09-29 03:00:00 19.7 9 Este 18 Nordeste 0 -- -- 86
2019-09-29 02:00:00 19.6 8 Este 14 Nordeste 0 -- -- 86
2019-09-29 01:00:00 19.8 8 Este 17 Nordeste 0 -- -- 86
2019-09-29 00:00:00 19.9 11 Nordeste 17 Nordeste 0 -- -- 85
2019-09-28 23:00:00 20.2 4 Nordeste 13 Norte 0 -- -- 83
2019-09-28 22:00:00 20.5 7 Norte 20 Norte 0 -- -- 83
2019-09-28 21:00:00 20.7 8 Norte 20 Noroeste 0 -- -- 82
2019-09-28 20:00:00 21.4 11 Norte 22 Norte 0 -- -- 79
2019-09-28 19:00:00 23.3 10 Noroeste 23 Noroeste 0 -- -- 70
2019-09-28 18:00:00 24.6 11 Norte 22 Noroeste 0 -- -- 64
2019-09-28 17:00:00 25.2 12 Nordeste 26 Nordeste 0 -- -- 60
2019-09-28 16:00:00 25 12 Nordeste 26 Nordeste 0 -- -- 61
2019-09-28 15:00:00 24.9 12 Nordeste 29 Este 0 -- -- 62
2019-09-28 14:00:00 24.4 12 Nordeste 29 Nordeste 0 -- -- 63
2019-09-28 13:00:00 23.7 17 Nordeste 29 Nordeste 0 -- -- 65
2019-09-28 12:00:00 22.7 18 Nordeste 29 Nordeste 0 -- -- 69
2019-09-28 11:00:00 21.7 17 Nordeste 30 Nordeste 0 -- -- 73
2019-09-28 10:00:00 20.5 15 Nordeste 27 Este 0 -- -- 79
2019-09-28 09:00:00 19.6 8 Nordeste 12 Este 0 -- -- 84
2019-09-28 08:00:00 18.5 4 Nordeste 8 Sudeste 0 -- -- 85
2019-09-28 07:00:00 18.6 0 Calma 6 Nordeste 0 -- -- 86
2019-09-28 06:00:00 18.9 3 Nordeste 4 Norte 0 -- -- 85
2019-09-28 05:00:00 18.8 4 Nordeste 5 Nordeste 0 -- -- 84
2019-09-28 04:00:00 19.5 4 Nordeste 12 Norte 0 -- -- 83
2019-09-28 03:00:00 20.3 7 Norte 15 Norte 0 -- -- 81
2019-09-28 02:00:00 20.5 8 Nordeste 15 Nordeste 0 -- -- 82
2019-09-28 01:00:00 20.5 12 Nordeste 20 Nordeste 0 -- -- 81
2019-09-28 00:00:00 20.6 10 Nordeste 20 Nordeste 0 -- -- 79
2019-09-27 23:00:00 21.2 12 Nordeste 19 Norte 0 -- -- 79
2019-09-27 22:00:00 21.4 10 Nordeste 23 Norte 0 -- -- 79
2019-09-27 21:00:00 21 13 Norte 24 Norte 0 -- -- 81
2019-09-27 20:00:00 21.7 14 Norte 26 Norte 0 -- -- 78
2019-09-27 19:00:00 22.8 15 Norte 27 Norte 0 -- -- 71
2019-09-27 18:00:00 23.9 12 Nordeste 23 Nordeste 0 -- -- 68
2019-09-27 17:00:00 24.4 10 Nordeste 28 Nordeste 0 -- -- 65
2019-09-27 16:00:00 24.4 14 Nordeste 26 Nordeste 0 -- -- 65
2019-09-27 15:00:00 24.8 13 Nordeste 29 Este 0 -- -- 63
2019-09-27 14:00:00 24.5 13 Nordeste 26 Nordeste 0 -- -- 65
2019-09-27 13:00:00 24.4 15 Nordeste 26 Este 0 -- -- 65
2019-09-27 12:00:00 23.8 13 Nordeste 23 Este 0 -- -- 66
2019-09-27 11:00:00 22.6 10 Nordeste 20 Nordeste 0 -- -- 71
2019-09-27 10:00:00 21.1 10 Nordeste 17 Nordeste 0 -- -- 78
2019-09-27 09:00:00 20 6 Este 10 Nordeste 0 -- -- 83
2019-09-27 08:00:00 19.7 6 Nordeste 15 Nordeste 0 -- -- 82
2019-09-27 07:00:00 20.2 9 Nordeste 15 Norte 0 -- -- 81
2019-09-27 06:00:00 20.1 5 Norte 10 Nordeste 0 -- -- 81
2019-09-27 05:00:00 20 6 Nordeste 18 Nordeste 0 -- -- 81
2019-09-27 04:00:00 20.3 7 Norte 15 Norte 0 -- -- 80
2019-09-27 03:00:00 20.6 6 Norte 17 Nordeste 0 -- -- 78
2019-09-27 02:00:00 20.3 7 Nordeste 14 Nordeste 0 -- -- 81
2019-09-27 01:00:00 20.4 8 Nordeste 19 Nordeste 0 -- -- 80
2019-09-27 00:00:00 20.8 11 Nordeste 18 Nordeste 0 -- -- 78
2019-09-26 23:00:00 21.2 11 Nordeste 22 Norte 0 -- -- 77
2019-09-26 22:00:00 21.4 13 Norte 24 Norte 0 -- -- 76
2019-09-26 21:00:00 21.3 15 Norte 24 Norte 0 -- -- 77
2019-09-26 20:00:00 22 9 Nordeste 19 Nordeste 0 -- -- 77
2019-09-26 19:00:00 22.4 13 Nordeste 27 Nordeste 0 -- -- 77
2019-09-26 18:00:00 23.8 15 Nordeste 25 Nordeste 0 -- -- 69
2019-09-26 17:00:00 24.3 12 Nordeste 25 Nordeste 0 -- -- 67
2019-09-26 16:00:00 24.8 13 Nordeste 28 Nordeste 0 -- -- 66
2019-09-26 15:00:00 25 14 Nordeste 24 Nordeste 0 -- -- 65
2019-09-26 14:00:00 25.3 14 Nordeste 28 Nordeste 0 -- -- 64
2019-09-26 13:00:00 24.7 14 Nordeste 26 Nordeste 0 -- -- 64
2019-09-26 12:00:00 22.9 13 Nordeste 23 Nordeste 0 -- -- 70
2019-09-26 11:00:00 22.7 9 Norte 21 Nordeste 0 -- -- 69
2019-09-26 10:00:00 21.5 10 Nordeste 18 Nordeste 0 -- -- 77
2019-09-26 09:00:00 20.9 7 Nordeste 13 Nordeste 0 -- -- 80
2019-09-26 08:00:00 20.5 6 Norte 15 Norte 0 -- -- 80
2019-09-26 07:00:00 20.5 11 Norte 16 Norte 0 -- -- 81
2019-09-26 06:00:00 20.7 9 Norte 19 Nordeste 0 -- -- 78
2019-09-26 05:00:00 20.6 10 Nordeste 27 Nordeste 0 -- -- 79
2019-09-26 04:00:00 20.7 10 Norte 24 Nordeste 0 -- -- 78
2019-09-26 03:00:00 20.7 14 Nordeste 25 Nordeste 0 -- -- 78
2019-09-26 02:00:00 20.7 14 Nordeste 22 Nordeste 0 -- -- 80
2019-09-26 01:00:00 20.6 8 Nordeste 21 Nordeste 0 -- -- 83
2019-09-26 00:00:00 20.4 10 Nordeste 18 Nordeste 0 -- -- 84
2019-09-25 23:00:00 20.6 12 Nordeste 21 Nordeste 0 -- -- 83
2019-09-25 22:00:00 21 10 Nordeste 22 Nordeste 0 -- -- 81
2019-09-25 21:00:00 21.6 9 Nordeste 22 Norte 0 -- -- 77
2019-09-25 20:00:00 22 14 Norte 28 Norte 0 -- -- 77
2019-09-25 19:00:00 23.1 16 Norte 28 Norte 0 -- -- 73
2019-09-25 18:00:00 23.9 14 Norte 28 Nordeste 0 -- -- 69
2019-09-25 17:00:00 24.8 16 Norte 31 Norte 0 -- -- 66
2019-09-25 16:00:00 25.8 15 Norte 31 Nordeste 0 -- -- 62
2019-09-25 15:00:00 26 14 Norte 30 Norte 0 -- -- 60
2019-09-25 14:00:00 25.9 17 Norte 35 Norte 0 -- -- 61
2019-09-25 13:00:00 25.8 15 Norte 31 Nordeste 0 -- -- 60
2019-09-25 12:00:00 24.7 15 Nordeste 32 Nordeste 0 -- -- 62
2019-09-25 11:00:00 23.3 16 Norte 27 Norte 0 -- -- 68
2019-09-25 10:00:00 21.9 15 Norte 23 Norte 0 -- -- 75
2019-09-25 09:00:00 20.2 11 Norte 21 Norte 0 -- -- 83
2019-09-25 08:00:00 19 12 Norte 19 Norte 0 -- -- 86
2019-09-25 07:00:00 19 10 Norte 18 Norte 0 -- -- 85
2019-09-25 06:00:00 19.1 11 Norte 23 Norte 0 -- -- 84
2019-09-25 05:00:00 19.3 11 Norte 26 Norte 0 -- -- 84
2019-09-25 04:00:00 19.3 10 Norte 23 Norte 0 -- -- 84
2019-09-25 03:00:00 19.3 12 Norte 20 Norte 0 -- -- 83
2019-09-25 02:00:00 19.5 10 Norte 18 Norte 0 -- -- 83
2019-09-25 01:00:00 19.7 10 Norte 21 Norte 0 -- -- 81
2019-09-25 00:00:00 20.3 8 Norte 16 Norte 0 -- -- 79
2019-09-24 23:00:00 20.1 7 Nordeste 23 Norte 0 -- -- 80
2019-09-24 22:00:00 20.4 12 Norte 21 Nordeste 0 -- -- 79
2019-09-24 21:00:00 20.6 13 Norte 25 Norte 0 -- -- 76
2019-09-24 20:00:00 21.1 13 Norte 28 Norte 0 -- -- 75
2019-09-24 19:00:00 22.6 17 Norte 30 Norte 0 -- -- 68
2019-09-24 18:00:00 24 17 Norte 35 Norte 0 -- -- 63
2019-09-24 17:00:00 24.4 17 Norte 36 Norte 0 -- -- 62
2019-09-24 16:00:00 25 18 Norte 34 Norte 0 -- -- 59
2019-09-24 15:00:00 25 16 Norte 34 Norte 0 -- -- 59
2019-09-24 14:00:00 24.7 17 Norte 32 Norte 0 -- -- 58
2019-09-24 13:00:00 24.2 16 Norte 29 Noroeste 0 -- -- 60
2019-09-24 12:00:00 23.3 17 Norte 28 Nordeste 0 -- -- 63
2019-09-24 11:00:00 21.9 12 Norte 24 Norte 0 -- -- 67
2019-09-24 10:00:00 21 10 Norte 25 Norte 0 -- -- 71
2019-09-24 09:00:00 20 13 Norte 25 Norte 0 -- -- 75
2019-09-24 08:00:00 19.6 7 Norte 13 Nordeste 0 -- -- 80
2019-09-24 07:00:00 19.3 6 Nordeste 9 Nordeste 0 -- -- 83
2019-09-24 06:00:00 18.4 3 Sudeste 6 Nordeste 0 -- -- 82
2019-09-24 05:00:00 19 4 Este 13 Norte 0 -- -- 81
2019-09-24 04:00:00 19.3 6 Norte 13 Norte 0 -- -- 81
2019-09-24 03:00:00 19.5 4 Norte 9 Norte 0 -- -- 81
2019-09-24 02:00:00 19.7 6 Norte 17 Nordeste 0 -- -- 80
2019-09-24 01:00:00 19.8 8 Nordeste 18 Nordeste 0 -- -- 79
2019-09-24 00:00:00 20.1 12 Nordeste 22 Nordeste 0 -- -- 78
2019-09-23 23:00:00 20.5 11 Nordeste 20 Nordeste 0 -- -- 77
2019-09-23 22:00:00 20.8 12 Norte 28 Norte 0 -- -- 77
2019-09-23 21:00:00 21 15 Norte 30 Nordeste 0 -- -- 77
2019-09-23 20:00:00 21.4 15 Norte 30 Norte 0 -- -- 77
2019-09-23 19:00:00 23.1 16 Norte 30 Norte 0 -- -- 65
2019-09-23 18:00:00 23.9 18 Norte 32 Norte 0 -- -- 63
2019-09-23 17:00:00 24.1 19 Norte 32 Nordeste 0 -- -- 62
2019-09-23 16:00:00 24.3 14 Nordeste 29 Nordeste 0 -- -- 64
2019-09-23 15:00:00 24.7 16 Nordeste 35 Nordeste 0 -- -- 61
2019-09-23 14:00:00 24.7 19 Nordeste 34 Nordeste 0 -- -- 61
2019-09-23 13:00:00 24.1 17 Nordeste 30 Nordeste 0 -- -- 61
2019-09-23 12:00:00 23.2 13 Norte 28 Norte 0 -- -- 65
2019-09-23 11:00:00 22.6 15 Norte 23 Nordeste 0 -- -- 66
2019-09-23 10:00:00 21 12 Norte 18 Norte 0 -- -- 77
2019-09-23 09:00:00 20.3 5 Nordeste 10 Nordeste 0 -- -- 79
2019-09-23 08:00:00 19.1 4 Norte 8 Norte 0 -- -- 83
2019-09-23 07:00:00 19.6 5 Nordeste 17 Norte 0 -- -- 82
2019-09-23 06:00:00 20 10 Norte 18 Nordeste 0 -- -- 82
2019-09-23 05:00:00 20.3 12 Norte 22 Norte 0 -- -- 83
2019-09-23 04:00:00 20.5 10 Norte 22 Norte 0 -- -- 85
2019-09-23 03:00:00 20.9 6 Norte 14 Nordeste 0 -- -- 85
2019-09-23 02:00:00 20.7 9 Nordeste 21 Nordeste 0 -- -- 82
2019-09-23 01:00:00 20.8 9 Nordeste 20 Nordeste 0 -- -- 82
2019-09-23 00:00:00 21.3 9 Nordeste 19 Norte 0 -- -- 84
2019-09-22 23:00:00 21.5 14 Norte 22 Norte 0 -- -- 85
2019-09-22 22:00:00 21.5 12 Norte 22 Norte 0 -- -- 88
2019-09-22 21:00:00 22.1 12 Norte 23 Norte 0 -- -- 87
2019-09-22 20:00:00 22.8 12 Norte 23 Norte 0 -- -- 82
2019-09-22 19:00:00 23.8 13 Norte 24 Noroeste 0 -- -- 78
2019-09-22 18:00:00 25.2 10 Norte 22 Noroeste 0 -- -- 71
2019-09-22 17:00:00 25.8 13 Norte 24 Norte 0 -- -- 67
2019-09-22 16:00:00 26 11 Noroeste 27 Norte 0 -- -- 67
2019-09-22 15:00:00 26.6 10 Norte 30 Norte 0 -- -- 63
2019-09-22 14:00:00 26.2 11 Noroeste 26 Noroeste 0 -- -- 63
2019-09-22 13:00:00 25.7 16 Noroeste 29 Noroeste 0 -- -- 64
2019-09-22 12:00:00 25.4 14 Noroeste 29 Noroeste 0 -- -- 62
2019-09-22 11:00:00 23.8 10 Norte 22 Norte 0 -- -- 68
2019-09-22 10:00:00 22.2 7 Noroeste 14 Noroeste 0 -- -- 79
2019-09-22 09:00:00 20.7 5 Noroeste 10 Noroeste 0 -- -- 89
2019-09-22 08:00:00 19.9 6 Noroeste 12 Noroeste 0 -- -- 91
2019-09-22 07:00:00 19 3 Sur 5 Sur 0 -- -- 90
2019-09-22 06:00:00 18.8 2 Sur 4 Oeste 0 -- -- 89
2019-09-22 05:00:00 19 3 Oeste 5 Oeste 0 -- -- 89
2019-09-22 04:00:00 19 0 Calma 4 Sudoeste 0 -- -- 88
2019-09-22 03:00:00 19.5 2 Oeste 6 Noroeste 0 -- -- 87
2019-09-22 02:00:00 20.4 3 Noroeste 8 Norte 0 -- -- 86
2019-09-22 01:00:00 20.6 0 Calma 9 Norte 0 -- -- 85
2019-09-22 00:00:00 20.7 3 Norte 10 Norte 0 -- -- 84
2019-09-21 23:00:00 20.9 5 Norte 15 Norte 0 -- -- 82
2019-09-21 22:00:00 21.3 8 Norte 15 Norte 0 -- -- 80
2019-09-21 21:00:00 21.6 7 Noroeste 21 Noroeste 0 -- -- 79
2019-09-21 20:00:00 22.3 8 Noroeste 19 Noroeste 0 -- -- 74
2019-09-21 19:00:00 24.2 9 Norte 25 Noroeste 0 -- -- 65
2019-09-21 18:00:00 24.4 15 Noroeste 26 Noroeste 0 -- -- 66
2019-09-21 17:00:00 25.8 12 Noroeste 26 Noroeste 0 -- -- 59
2019-09-21 16:00:00 26.2 12 Noroeste 26 Noroeste 0 -- -- 57
2019-09-21 15:00:00 26.1 12 Noroeste 23 Noroeste 0 -- -- 57
2019-09-21 14:00:00 25.8 13 Noroeste 23 Noroeste 0 -- -- 56
2019-09-21 13:00:00 25.2 11 Noroeste 21 Norte 0 -- -- 59
2019-09-21 12:00:00 24.1 8 Noroeste 19 Noroeste 0 -- -- 65
2019-09-21 11:00:00 22.5 8 Noroeste 15 Norte 0 -- -- 74
2019-09-21 10:00:00 20.6 6 Noroeste 13 Norte 0 -- -- 85
2019-09-21 09:00:00 19 2 Noroeste 5 Noroeste 0 -- -- 92
2019-09-21 08:00:00 16.6 2 Sudoeste 5 Sur 0 -- -- 90
2019-09-21 07:00:00 16.9 4 Sur 5 Sur 0 -- -- 90
2019-09-21 06:00:00 16.4 3 Sudoeste 5 Sudoeste 0 -- -- 89
2019-09-21 05:00:00 16 2 Sur 4 Sudeste 0 -- -- 87
2019-09-21 04:00:00 17.1 0 Calma 5 Sudeste 0 -- -- 86
2019-09-21 03:00:00 17 3 Nordeste 6 Sudeste 0 -- -- 81
2019-09-21 02:00:00 18.2 0 Calma 3 Sudeste 0 -- -- 85
2019-09-21 01:00:00 18.8 2 Sudeste 5 Sudeste 0 -- -- 84
2019-09-21 00:00:00 19.4 0 Calma 8 Nordeste 0 -- -- 81
2019-09-20 23:00:00 19.9 4 Nordeste 14 Norte 0 -- -- 80
2019-09-20 22:00:00 20.4 9 Norte 15 Norte 0 -- -- 81
2019-09-20 21:00:00 20.6 6 Norte -- -- -- -- -- 79
2019-09-20 20:00:00 21.4 10 Norte 23 Nordeste 0 -- -- 74
2019-09-20 19:00:00 23.1 13 Norte 27 Noroeste 0 -- -- 69
2019-09-20 18:00:00 24.4 12 Noroeste 25 Nordeste 0 -- -- 63
2019-09-20 17:00:00 25.5 14 Norte 26 Norte 0 -- -- 61
2019-09-20 16:00:00 25.1 14 Norte -- -- -- -- -- 64
2019-09-20 15:00:00 25.2 12 Norte 24 Noroeste 0 -- -- 62
2019-09-20 14:00:00 25.1 14 Norte 39 Norte 0 -- -- 62
2019-09-20 13:00:00 24.4 13 Norte 26 Noroeste 0 -- -- 64
2019-09-20 12:00:00 23.9 10 Noroeste 23 Noroeste 0 -- -- 66
2019-09-20 11:00:00 23.4 6 Norte 22 Nordeste 0 -- -- 64
2019-09-20 10:00:00 21.8 12 Norte 19 Nordeste 0 -- -- 71
2019-09-20 09:00:00 20.3 5 Nordeste 12 Norte 0 -- -- 80
2019-09-20 08:00:00 19.5 5 Nordeste 10 Norte 0 -- -- 82
2019-09-20 07:00:00 19.1 7 Nordeste 15 Norte 0 -- -- 81
2019-09-20 06:00:00 18.4 3 Nordeste 9 Norte 0 -- -- 85
2019-09-20 05:00:00 19 5 Norte 8 Norte 0 -- -- 85
2019-09-20 04:00:00 18.7 4 Nordeste 7 Nordeste 0 -- -- 84
2019-09-20 03:00:00 19.3 6 Norte 12 Norte 0 -- -- 84
2019-09-20 02:00:00 19.4 6 Norte 17 Norte 0 -- -- 83
2019-09-20 01:00:00 19.5 8 Norte 21 Norte 0 -- -- 84
2019-09-20 00:00:00 19.8 13 Norte 24 Norte 0 -- -- 84
2019-09-19 23:00:00 19.9 12 Norte 26 Norte 0 -- -- 83
2019-09-19 22:00:00 20.2 13 Norte 25 Noroeste 0 -- -- 82
2019-09-19 21:00:00 20.7 13 Norte 25 Norte 0 -- -- 80
2019-09-19 20:00:00 21.7 13 Norte 22 Norte 0 -- -- 76
2019-09-19 19:00:00 22.3 15 Nordeste 27 Este 0 -- -- 72
2019-09-19 18:00:00 23.9 16 Nordeste 28 Nordeste 0 -- -- 65
2019-09-19 17:00:00 24.3 16 Nordeste -- -- -- -- -- 65
2019-09-19 16:00:00 24.8 13 Norte 25 Nordeste 0 -- -- 62
2019-09-19 15:00:00 25.2 15 Nordeste 27 Norte 0 -- -- 61
2019-09-19 14:00:00 24.8 18 Nordeste 32 Nordeste 0 -- -- 62
2019-09-19 13:00:00 24.8 12 Nordeste 30 Norte 0 -- -- 62
2019-09-19 12:00:00 23.7 14 Norte 24 Norte 0 -- -- 62
2019-09-19 11:00:00 22.4 13 Nordeste 26 Nordeste 0 -- -- 70
2019-09-19 10:00:00 20.7 14 Nordeste 23 Nordeste 0 -- -- 77
2019-09-19 09:00:00 19.4 6 Nordeste 12 Nordeste 0 -- -- 84
2019-09-19 08:00:00 17.9 7 Nordeste 11 Nordeste 0 -- -- 88
2019-09-19 07:00:00 17.4 5 Este 8 Este 0 -- -- 88
2019-09-19 06:00:00 17.5 4 Sudeste 6 Sudeste 0 -- -- 88
2019-09-19 05:00:00 17.5 4 Sudeste 14 Nordeste 0 -- -- 87
2019-09-19 04:00:00 18.4 10 Nordeste 18 Nordeste 0 -- -- 88
2019-09-19 03:00:00 18.7 10 Nordeste 24 Nordeste 0 -- -- 86
2019-09-19 02:00:00 19 10 Nordeste 18 Nordeste 0 -- -- 85
2019-09-19 01:00:00 19 5 Este 11 Nordeste 0 -- -- 86
2019-09-19 00:00:00 19.3 7 Nordeste 18 Nordeste 0 -- -- 84
2019-09-18 23:00:00 19.8 9 Nordeste 18 Este 0 -- -- 82
2019-09-18 22:00:00 20.5 10 Nordeste 22 Nordeste 0 -- -- 83
2019-09-18 21:00:00 20.5 14 Nordeste 24 Nordeste 0 -- -- 82
2019-09-18 20:00:00 21.3 13 Nordeste 27 Nordeste 0 -- -- 78
2019-09-18 19:00:00 22.8 15 Nordeste 28 Nordeste 0 -- -- 69
2019-09-18 18:00:00 23.4 19 Nordeste 30 Nordeste 0 -- -- 65
2019-09-18 17:00:00 24.4 15 Nordeste 31 Nordeste 0 -- -- 63
2019-09-18 16:00:00 24 17 Nordeste 31 Nordeste 0 -- -- 64
2019-09-18 15:00:00 24.8 16 Nordeste 30 Este 0 -- -- 62
2019-09-18 14:00:00 24.3 18 Nordeste 30 Este 0 -- -- 63
2019-09-18 13:00:00 24.3 14 Nordeste 27 Nordeste 0 -- -- 64
2019-09-18 12:00:00 23.3 16 Nordeste 31 Nordeste 0 -- -- 65
2019-09-18 11:00:00 22.1 17 Nordeste 31 Nordeste 0 -- -- 70
2019-09-18 10:00:00 20.5 17 Nordeste 33 Nordeste 0 -- -- 75
2019-09-18 09:00:00 19.7 12 Nordeste 20 Nordeste 0 -- -- 81
2019-09-18 08:00:00 19 12 Nordeste 22 Nordeste 0 -- -- 83
2019-09-18 07:00:00 18.8 9 Nordeste 22 Nordeste 0 -- -- 84
2019-09-18 06:00:00 18.8 12 Nordeste 22 Nordeste 0 -- -- 84
2019-09-18 05:00:00 18.7 13 Nordeste 20 Nordeste 0 -- -- 86
2019-09-18 04:00:00 18.9 13 Nordeste 29 Nordeste 0 -- -- 86
2019-09-18 03:00:00 19.2 14 Nordeste 21 Nordeste 0 -- -- 85
2019-09-18 02:00:00 19.1 10 Nordeste 18 Este 0 -- -- 85
2019-09-18 01:00:00 19.3 9 Nordeste 19 Nordeste 0 -- -- 85
2019-09-18 00:00:00 19.8 13 Nordeste 22 Nordeste 0 -- -- 85
2019-09-17 23:00:00 20.4 13 Nordeste 24 Nordeste 0 -- -- 83
2019-09-17 22:00:00 20.4 15 Nordeste 24 Nordeste 0 -- -- 84
2019-09-17 21:00:00 21 10 Este 22 Este 0 -- -- 82
2019-09-17 20:00:00 21.2 16 Nordeste 27 Nordeste 0 -- -- 79